createdAt,value
2018-07-13T00:00:28.900Z,10.50
2018-07-13T00:02:57.989Z,10.63
2018-07-13T00:05:27.091Z,11.17
2018-07-13T00:07:56.190Z,11.30
2018-07-13T00:10:25.320Z,11.23
2018-07-13T00:12:54.408Z,11.80
2018-07-13T00:15:23.572Z,10.57
2018-07-13T00:17:52.679Z,10.40
2018-07-13T00:20:22.619Z,10.30
2018-07-13T00:22:51.754Z,10.13
2018-07-13T00:25:20.853Z,9.73
2018-07-13T00:27:49.960Z,10.00
2018-07-13T00:30:19.083Z,10.03
2018-07-13T00:32:48.177Z,10.90
2018-07-13T00:35:17.282Z,10.30
2018-07-13T00:37:46.369Z,10.80
2018-07-13T00:40:15.480Z,10.40
2018-07-13T00:42:44.596Z,10.97
2018-07-13T00:45:13.696Z,10.30
2018-07-13T00:47:42.785Z,9.37
2018-07-13T00:50:11.896Z,9.33
2018-07-13T00:52:40.976Z,9.10
2018-07-13T00:55:10.108Z,9.40
2018-07-13T00:57:39.240Z,9.87
2018-07-13T01:00:08.345Z,8.53
2018-07-13T01:02:37.425Z,10.33
2018-07-13T01:05:06.533Z,8.40
2018-07-13T01:07:35.619Z,9.30
2018-07-13T01:10:04.772Z,11.10
2018-07-13T01:12:33.857Z,10.87
2018-07-13T01:15:02.973Z,11.90
2018-07-13T01:17:32.073Z,14.57
2018-07-13T01:20:01.187Z,12.80
2018-07-13T01:22:30.272Z,15.40
2018-07-13T01:24:59.380Z,18.97
2018-07-13T01:27:28.965Z,21.97
2018-07-13T01:29:58.999Z,21.83
2018-07-13T01:32:28.108Z,23.57
2018-07-13T01:34:57.236Z,28.60
2018-07-13T01:37:26.353Z,25.47
2018-07-13T01:39:55.480Z,30.60
2018-07-13T01:42:24.599Z,31.80
2018-07-13T01:44:53.730Z,32.50
2018-07-13T01:47:22.781Z,32.70
2018-07-13T01:49:51.900Z,40.60
2018-07-13T01:52:21.012Z,42.80
2018-07-13T01:54:50.128Z,44.87
2018-07-13T01:57:19.262Z,44.20
2018-07-13T01:59:48.416Z,42.90
2018-07-13T02:02:17.692Z,44.30
2018-07-13T02:04:46.840Z,42.73
2018-07-13T02:07:15.933Z,44.13
2018-07-13T02:09:45.089Z,42.50
2018-07-13T02:12:14.176Z,41.73
2018-07-13T02:14:43.371Z,38.27
2018-07-13T02:17:12.457Z,37.40
2018-07-13T02:19:41.564Z,40.70
2018-07-13T02:22:10.681Z,44.10
2018-07-13T02:24:39.781Z,46.67
2018-07-13T02:27:08.896Z,48.90
2018-07-13T02:29:38.021Z,51.37
2018-07-13T02:32:07.133Z,52.03
2018-07-13T02:34:36.269Z,52.90
2018-07-13T02:37:05.815Z,53.47
2018-07-13T02:39:35.052Z,56.40
2018-07-13T02:42:04.228Z,56.67
2018-07-13T02:44:33.424Z,55.67
2018-07-13T02:47:02.609Z,52.93
2018-07-13T02:49:31.697Z,53.70
2018-07-13T02:52:00.821Z,53.10
2018-07-13T02:54:29.944Z,55.57
2018-07-13T02:56:59.073Z,56.57
2018-07-13T02:59:28.192Z,56.13
2018-07-13T03:01:57.337Z,57.00
2018-07-13T03:04:26.425Z,54.30
2018-07-13T03:06:55.537Z,47.60
2018-07-13T03:09:24.645Z,38.57
2018-07-13T03:11:53.778Z,35.47
2018-07-13T03:14:22.879Z,29.90
2018-07-13T03:16:52.090Z,27.98
2018-07-13T03:19:21.189Z,27.65
2018-07-13T03:21:50.341Z,30.40
2018-07-13T03:24:19.438Z,27.90
2018-07-13T03:26:48.662Z,25.95
2018-07-13T03:29:17.776Z,24.00
2018-07-13T03:31:46.917Z,24.30
2018-07-13T03:34:16.021Z,20.23
2018-07-13T03:36:45.158Z,23.50
2018-07-13T03:39:14.252Z,19.23
2018-07-13T03:41:43.376Z,20.30
2018-07-13T03:44:12.500Z,18.23
2018-07-13T03:46:41.605Z,17.70
2018-07-13T03:49:10.709Z,17.27
2018-07-13T03:51:39.816Z,17.57
2018-07-13T03:54:08.970Z,17.63
2018-07-13T03:56:38.069Z,17.40
2018-07-13T03:59:07.164Z,17.10
2018-07-13T04:01:36.299Z,18.37
2018-07-13T04:04:05.436Z,16.63
2018-07-13T04:06:34.713Z,17.70
2018-07-13T04:09:03.788Z,17.30
2018-07-13T04:11:32.889Z,17.25
2018-07-13T04:14:01.990Z,17.62
2018-07-13T04:16:31.872Z,14.65
2018-07-13T04:19:01.022Z,16.50
2018-07-13T04:21:30.141Z,17.37
2018-07-13T04:23:59.260Z,17.67
2018-07-13T04:26:28.817Z,16.57
2018-07-13T04:28:58.005Z,15.95
2018-07-13T04:31:27.129Z,15.23
2018-07-13T04:33:56.229Z,16.30
2018-07-13T04:36:25.372Z,17.57
2018-07-13T04:38:54.484Z,17.37
2018-07-13T04:41:23.605Z,15.90
2018-07-13T04:43:52.724Z,17.17
2018-07-13T04:46:21.840Z,15.48
2018-07-13T04:48:50.945Z,17.73
2018-07-13T04:51:20.101Z,16.23
2018-07-13T04:53:49.215Z,16.50
2018-07-13T04:56:18.356Z,15.97
2018-07-13T04:58:47.556Z,15.78
2018-07-13T05:01:16.700Z,14.73
2018-07-13T05:03:45.836Z,16.47
2018-07-13T05:06:14.962Z,15.90
2018-07-13T05:08:44.101Z,18.23
2018-07-13T05:11:13.196Z,15.80
2018-07-13T05:13:42.332Z,15.10
2018-07-13T05:16:11.452Z,16.80
2018-07-13T05:18:40.560Z,16.63
2018-07-13T05:21:09.758Z,17.53
2018-07-13T05:23:38.781Z,17.60
2018-07-13T05:26:07.877Z,15.97
2018-07-13T05:28:37.224Z,18.95
2018-07-13T05:31:06.327Z,16.70
2018-07-13T05:33:35.464Z,17.65
2018-07-13T05:36:04.573Z,18.90
2018-07-13T05:38:33.720Z,18.80
2018-07-13T05:41:02.892Z,16.73
2018-07-13T05:43:35.903Z,17.20
2018-07-13T05:46:05.009Z,17.40
2018-07-13T05:48:35.226Z,18.40
2018-07-13T05:51:04.333Z,18.52
2018-07-13T05:53:33.467Z,18.47
2018-07-13T05:56:02.617Z,20.00
2018-07-13T05:58:32.596Z,16.97
2018-07-13T06:01:01.713Z,19.50
2018-07-13T06:03:30.844Z,17.43
2018-07-13T06:05:59.980Z,19.73
2018-07-13T06:08:29.736Z,18.47
2018-07-13T06:10:58.896Z,20.20
2018-07-13T06:13:28.041Z,21.50
2018-07-13T06:15:58.257Z,19.83
2018-07-13T06:18:27.408Z,19.15
2018-07-13T06:20:56.499Z,20.08
2018-07-13T06:23:25.649Z,18.52
2018-07-13T06:25:54.769Z,18.90
2018-07-13T06:28:24.074Z,18.80
2018-07-13T06:30:53.160Z,19.40
2018-07-13T06:33:22.277Z,20.27
2018-07-13T06:35:51.401Z,19.93
2018-07-13T06:38:20.537Z,20.02
2018-07-13T06:40:50.129Z,21.00
2018-07-13T06:43:19.252Z,20.55
2018-07-13T06:45:48.341Z,20.05
2018-07-13T06:48:17.481Z,20.67
2018-07-13T06:50:46.656Z,20.20
2018-07-13T06:53:16.558Z,19.00
2018-07-13T06:55:46.516Z,21.03
2018-07-13T06:58:26.910Z,21.27
2018-07-13T07:01:01.257Z,23.20
2018-07-13T07:03:31.708Z,20.17
2018-07-13T07:06:16.443Z,21.50
2018-07-13T07:08:46.863Z,21.20
2018-07-13T07:11:16.231Z,22.40
2018-07-13T07:13:46.020Z,22.60
2018-07-13T07:16:15.108Z,22.40
2018-07-13T07:18:44.452Z,22.30
2018-07-13T07:21:13.516Z,22.10
2018-07-13T07:23:42.629Z,21.42
2018-07-13T07:26:11.756Z,20.73
2018-07-13T07:28:40.863Z,22.00
2018-07-13T07:31:10.018Z,22.50
2018-07-13T07:33:39.117Z,20.37
2018-07-13T07:36:08.205Z,22.67
2018-07-13T07:38:37.381Z,19.73
2018-07-13T07:41:06.496Z,21.50
2018-07-13T07:43:35.608Z,20.97
2018-07-13T07:46:04.700Z,21.57
2018-07-13T07:48:33.836Z,19.37
2018-07-13T07:51:02.917Z,20.10
2018-07-13T07:53:32.020Z,19.37
2018-07-13T07:56:01.249Z,19.03
2018-07-13T07:58:30.395Z,19.93
2018-07-13T08:00:59.473Z,19.25
2018-07-13T08:03:28.607Z,19.87
2018-07-13T08:05:57.709Z,19.70
2018-07-13T08:08:27.369Z,20.20
2018-07-13T08:10:56.497Z,21.10
2018-07-13T08:13:25.657Z,20.43
2018-07-13T08:15:54.705Z,19.80
2018-07-13T08:18:23.831Z,19.75
2018-07-13T08:20:52.932Z,17.47
2018-07-13T08:23:22.100Z,17.83
2018-07-13T08:25:51.904Z,17.97
2018-07-13T08:28:21.772Z,16.17
2018-07-13T08:30:55.604Z,15.57
2018-07-13T08:33:24.708Z,16.63
2018-07-13T08:35:54.892Z,16.40
2018-07-13T08:38:24.595Z,16.67
2018-07-13T08:40:53.688Z,18.43
2018-07-13T08:43:22.835Z,15.70
2018-07-13T08:45:52.275Z,17.20
2018-07-13T08:48:21.381Z,16.27
2018-07-13T08:50:50.756Z,17.07
2018-07-13T08:53:19.832Z,16.33
2018-07-13T08:55:49.034Z,17.82
2018-07-13T08:58:18.112Z,16.73
2018-07-13T09:00:47.231Z,15.90
2018-07-13T09:03:16.628Z,16.73
2018-07-13T09:05:45.795Z,16.77
2018-07-13T09:08:14.856Z,15.20
2018-07-13T09:10:44.005Z,14.10
2018-07-13T09:13:13.060Z,14.87
2018-07-13T09:15:42.202Z,14.03
2018-07-13T09:18:11.958Z,13.25
2018-07-13T09:20:41.136Z,14.23
2018-07-13T09:23:10.328Z,13.40
2018-07-13T09:25:39.560Z,13.00
2018-07-13T09:28:08.843Z,12.77
2018-07-13T09:30:38.010Z,11.33
2018-07-13T09:33:07.160Z,12.67
2018-07-13T09:35:36.495Z,13.90
2018-07-13T09:38:06.392Z,13.62
2018-07-13T09:40:35.504Z,14.30
2018-07-13T09:43:04.663Z,14.00
2018-07-13T09:45:33.784Z,14.13
2018-07-13T09:48:02.889Z,13.20
2018-07-13T09:50:32.088Z,13.00
2018-07-13T09:53:01.624Z,14.00
2018-07-13T09:55:30.788Z,15.00
2018-07-13T09:57:59.938Z,12.07
2018-07-13T10:00:34.636Z,12.20
2018-07-13T10:03:03.620Z,14.27
2018-07-13T10:05:32.732Z,10.90
2018-07-13T10:08:01.917Z,11.12
2018-07-13T10:10:31.259Z,9.43
2018-07-13T10:13:00.409Z,11.08
2018-07-13T10:15:29.568Z,10.60
2018-07-13T10:17:58.744Z,9.60
2018-07-13T10:20:28.047Z,10.23
2018-07-13T10:22:57.153Z,11.37
2018-07-13T10:25:28.772Z,11.17
2018-07-13T10:27:57.956Z,11.20
2018-07-13T10:30:27.116Z,11.93
2018-07-13T10:32:56.220Z,11.57
2018-07-13T10:35:25.401Z,11.18
2018-07-13T10:37:54.511Z,12.80
2018-07-13T10:40:23.704Z,11.53
2018-07-13T10:42:52.793Z,12.23
2018-07-13T10:45:21.904Z,13.33
2018-07-13T10:47:51.076Z,12.20
2018-07-13T10:50:20.217Z,12.90
2018-07-13T10:52:49.334Z,13.20
2018-07-13T10:55:18.521Z,12.57
2018-07-13T10:57:47.705Z,12.43
2018-07-13T11:00:16.817Z,12.53
2018-07-13T11:02:45.978Z,11.12
2018-07-13T11:05:15.040Z,9.83
2018-07-13T11:07:44.171Z,11.25
2018-07-13T11:10:13.285Z,9.70
2018-07-13T11:12:42.632Z,8.70
2018-07-13T11:15:11.872Z,8.00
2018-07-13T11:17:40.965Z,9.20
2018-07-13T11:20:10.097Z,9.80
2018-07-13T11:22:39.174Z,9.40
2018-07-13T11:25:08.604Z,10.23
2018-07-13T11:27:37.859Z,10.20
2018-07-13T11:30:07.148Z,9.75
2018-07-13T11:32:36.272Z,8.87
2018-07-13T11:35:05.442Z,9.93
2018-07-13T11:37:35.064Z,8.10
2018-07-13T11:40:04.579Z,9.00
2018-07-13T11:42:33.747Z,9.90
2018-07-13T11:45:02.864Z,8.63
2018-07-13T11:47:32.232Z,9.48
2018-07-13T11:50:01.465Z,9.27
2018-07-13T11:52:30.725Z,9.83
2018-07-13T11:54:59.819Z,8.20
2018-07-13T11:57:29.009Z,8.65
2018-07-13T11:59:58.138Z,7.90
2018-07-13T12:02:27.514Z,8.37
2018-07-13T12:04:57.086Z,9.08
2018-07-13T12:07:26.236Z,8.90
2018-07-13T12:09:55.497Z,9.20
2018-07-13T12:12:24.836Z,10.50
2018-07-13T12:14:54.245Z,10.05
2018-07-13T12:17:23.527Z,8.90
2018-07-13T12:19:52.758Z,9.80
2018-07-13T12:22:21.951Z,9.13
2018-07-13T12:24:51.029Z,8.73
2018-07-13T12:27:20.156Z,8.03
2018-07-13T12:29:49.313Z,8.67
2018-07-13T12:32:18.429Z,8.10
2018-07-13T12:34:47.527Z,8.48
2018-07-13T12:37:16.636Z,8.57
2018-07-13T12:39:45.806Z,8.10
2018-07-13T12:42:14.894Z,6.90
2018-07-13T12:44:43.959Z,8.90
2018-07-13T12:47:13.189Z,8.90
2018-07-13T12:49:42.258Z,8.43
2018-07-13T12:52:11.366Z,6.90
2018-07-13T12:54:40.499Z,8.17
2018-07-13T12:57:09.577Z,7.97
2018-07-13T12:59:38.746Z,6.93
2018-07-13T13:02:08.853Z,7.37
2018-07-13T13:04:37.964Z,7.60
2018-07-13T13:07:07.073Z,7.20
2018-07-13T13:09:36.152Z,8.05
2018-07-13T13:12:05.301Z,7.00
2018-07-13T13:14:34.382Z,7.40
2018-07-13T13:17:03.505Z,7.20
2018-07-13T13:19:33.425Z,7.60
2018-07-13T13:22:02.593Z,6.30
2018-07-13T13:24:31.600Z,7.77
2018-07-13T13:27:00.716Z,6.60
2018-07-13T13:29:29.809Z,6.63
2018-07-13T13:31:58.938Z,7.35
2018-07-13T13:34:28.108Z,6.20
2018-07-13T13:36:57.206Z,7.33
2018-07-13T13:39:26.294Z,6.87
2018-07-13T13:41:55.709Z,8.17
2018-07-13T13:44:24.873Z,6.70
2018-07-13T13:46:53.961Z,8.10
2018-07-13T13:49:23.053Z,7.70
2018-07-13T13:51:52.192Z,6.37
2018-07-13T13:54:21.281Z,6.72
2018-07-13T13:56:50.400Z,6.53
2018-07-13T13:59:19.547Z,6.50
2018-07-13T14:01:48.657Z,7.00
2018-07-13T14:04:17.750Z,6.60
2018-07-13T14:06:46.863Z,5.80
2018-07-13T14:09:16.916Z,6.10
2018-07-13T14:11:45.920Z,5.58
2018-07-13T14:14:15.013Z,5.90
2018-07-13T14:16:44.136Z,5.70
2018-07-13T14:19:13.236Z,5.73
2018-07-13T14:21:42.356Z,5.10
2018-07-13T14:24:11.440Z,5.63
2018-07-13T14:26:40.533Z,6.15
2018-07-13T14:29:10.020Z,5.00
2018-07-13T14:31:39.092Z,5.40
2018-07-13T14:34:08.445Z,4.55
2018-07-13T14:36:37.512Z,5.50
2018-07-13T14:39:08.284Z,4.37
2018-07-13T14:41:37.376Z,4.40
2018-07-13T14:44:06.655Z,3.80
2018-07-13T14:46:35.735Z,3.87
2018-07-13T14:49:04.837Z,5.62
2018-07-13T14:51:34.216Z,3.75
2018-07-13T14:54:03.515Z,4.13
2018-07-13T14:56:32.652Z,4.60
2018-07-13T14:59:01.775Z,5.60
2018-07-13T15:01:30.953Z,4.37
2018-07-13T15:04:00.084Z,4.37
2018-07-13T15:06:29.366Z,4.33
2018-07-13T15:08:58.336Z,4.80
2018-07-13T15:11:27.407Z,4.10
2018-07-13T15:13:56.512Z,3.92
2018-07-13T15:16:25.619Z,4.30
2018-07-13T15:18:54.716Z,4.30
2018-07-13T15:21:23.863Z,3.67
2018-07-13T15:23:52.995Z,4.10
2018-07-13T15:26:22.076Z,4.10
2018-07-13T15:28:51.581Z,3.70
2018-07-13T15:31:20.688Z,4.47
2018-07-13T15:33:49.795Z,3.70
2018-07-13T15:36:18.856Z,4.00
2018-07-13T15:38:47.948Z,4.00
2018-07-13T15:41:17.092Z,4.20
2018-07-13T15:43:46.218Z,3.40
2018-07-13T15:46:15.288Z,3.40
2018-07-13T15:48:44.864Z,3.83
2018-07-13T15:51:13.972Z,3.60
2018-07-13T15:53:43.099Z,3.30
2018-07-13T15:56:12.208Z,4.00
2018-07-13T15:58:41.449Z,3.40
2018-07-13T16:01:10.440Z,3.85
2018-07-13T16:03:39.523Z,3.70
2018-07-13T16:06:08.605Z,3.50
2018-07-13T16:08:37.720Z,4.33
2018-07-13T16:11:06.793Z,3.20
2018-07-13T16:13:36.886Z,3.33
2018-07-13T16:16:06.101Z,3.37
2018-07-13T16:18:35.266Z,4.07
2018-07-13T16:21:04.395Z,3.43
2018-07-13T16:23:33.545Z,5.50
2018-07-13T16:26:02.661Z,7.20
2018-07-13T16:28:31.812Z,8.80
2018-07-13T16:31:00.957Z,6.30
2018-07-13T16:33:30.107Z,8.80
2018-07-13T16:35:59.264Z,10.80
2018-07-13T16:38:28.405Z,6.40
2018-07-13T16:40:57.517Z,12.27
2018-07-13T16:43:26.678Z,4.77
2018-07-13T16:45:55.903Z,3.07
2018-07-13T16:48:25.039Z,4.70
2018-07-13T16:50:54.197Z,3.60
2018-07-13T16:53:23.333Z,3.47
2018-07-13T16:55:52.467Z,5.60
2018-07-13T16:58:21.615Z,3.50
2018-07-13T17:00:50.732Z,4.00
2018-07-13T17:03:19.900Z,3.23
2018-07-13T17:05:49.009Z,3.20
2018-07-13T17:08:18.214Z,3.83
2018-07-13T17:10:47.352Z,3.87
2018-07-13T17:13:16.480Z,3.80
2018-07-13T17:15:45.620Z,3.93
2018-07-13T17:18:14.713Z,3.70
2018-07-13T17:20:43.849Z,3.63
2018-07-13T17:23:13.028Z,3.90
2018-07-13T17:25:42.197Z,3.40
2018-07-13T17:28:11.494Z,4.27
2018-07-13T17:30:40.637Z,3.77
2018-07-13T17:33:09.746Z,4.07
2018-07-13T17:35:38.880Z,8.15
2018-07-13T17:38:08.003Z,4.40
2018-07-13T17:40:37.154Z,4.37
2018-07-13T17:43:06.396Z,4.95
2018-07-13T17:45:35.494Z,4.20
2018-07-13T17:48:04.686Z,5.03
2018-07-13T17:50:33.810Z,4.17
2018-07-13T17:53:02.910Z,4.30
2018-07-13T17:55:32.100Z,4.33
2018-07-13T17:58:01.209Z,4.17
2018-07-13T18:00:30.367Z,4.30
2018-07-13T18:02:59.487Z,4.37
2018-07-13T18:05:28.706Z,4.37
2018-07-13T18:07:57.862Z,4.70
2018-07-13T18:10:27.016Z,4.80
2018-07-13T18:12:56.245Z,4.50
2018-07-13T18:15:25.288Z,5.43
2018-07-13T18:17:54.426Z,5.10
2018-07-13T18:20:23.602Z,6.35
2018-07-13T18:22:52.762Z,5.43
2018-07-13T18:25:21.840Z,5.75
2018-07-13T18:27:50.986Z,5.13
2018-07-13T18:30:20.128Z,5.47
2018-07-13T18:32:49.250Z,5.95
2018-07-13T18:35:18.442Z,6.12
2018-07-13T18:37:47.591Z,6.77
2018-07-13T18:40:17.317Z,6.33
2018-07-13T18:42:46.450Z,5.63
2018-07-13T18:45:15.614Z,6.80
2018-07-13T18:47:44.763Z,7.80
2018-07-13T18:50:13.933Z,7.70
2018-07-13T18:52:43.069Z,7.37
2018-07-13T18:55:12.230Z,6.60
2018-07-13T18:57:41.376Z,7.03
2018-07-13T19:00:10.550Z,6.70
2018-07-13T19:02:39.736Z,7.30
2018-07-13T19:05:08.957Z,7.40
2018-07-13T19:07:38.103Z,7.33
2018-07-13T19:10:07.277Z,8.47
2018-07-13T19:12:36.403Z,7.10
2018-07-13T19:15:06.006Z,9.50
2018-07-13T19:17:35.138Z,6.47
2018-07-13T19:20:04.432Z,7.85
2018-07-13T19:22:33.612Z,6.60
2018-07-13T19:25:02.723Z,6.87
2018-07-13T19:27:31.891Z,7.07
2018-07-13T19:30:01.098Z,8.30
2018-07-13T19:32:30.849Z,7.08
2018-07-13T19:35:00.106Z,9.58
2018-07-13T19:37:29.230Z,7.30
2018-07-13T19:39:58.424Z,7.00
2018-07-13T19:42:27.638Z,7.37
2018-07-13T19:44:56.702Z,7.70
2018-07-13T19:47:25.846Z,7.78
2018-07-13T19:49:55.086Z,7.67
2018-07-13T19:52:24.252Z,7.17
2018-07-13T19:54:54.358Z,7.60
2018-07-13T19:57:23.560Z,8.37
2018-07-13T19:59:52.686Z,7.37
2018-07-13T20:02:21.820Z,8.10
2018-07-13T20:04:51.013Z,7.42
2018-07-13T20:07:20.144Z,8.00
2018-07-13T20:09:49.251Z,7.62
2018-07-13T20:12:18.368Z,7.83
2018-07-13T20:14:47.456Z,9.68
2018-07-13T20:17:16.704Z,9.10
2018-07-13T20:19:45.728Z,8.90
2018-07-13T20:22:14.848Z,7.50
2018-07-13T20:24:43.942Z,7.90
2018-07-13T20:27:13.048Z,7.40
2018-07-13T20:29:42.119Z,8.47
2018-07-13T20:32:11.238Z,7.87
2018-07-13T20:34:40.336Z,7.53
2018-07-13T20:37:09.480Z,7.30
2018-07-13T20:39:38.621Z,7.80
2018-07-13T20:42:07.740Z,6.93
2018-07-13T20:44:36.816Z,7.60
2018-07-13T20:47:06.148Z,6.70
2018-07-13T20:49:35.253Z,7.63
2018-07-13T20:52:04.361Z,7.30
2018-07-13T20:54:34.197Z,7.70
2018-07-13T20:57:03.316Z,6.67
2018-07-13T20:59:32.495Z,6.50
2018-07-13T21:02:01.628Z,8.00
2018-07-13T21:04:30.713Z,7.00
2018-07-13T21:06:59.824Z,6.35
2018-07-13T21:09:28.921Z,6.90
2018-07-13T21:11:58.044Z,5.83
2018-07-13T21:14:27.156Z,7.67
2018-07-13T21:16:56.300Z,7.63
2018-07-13T21:19:25.411Z,8.03
2018-07-13T21:21:54.523Z,7.45
2018-07-13T21:24:23.616Z,7.97
2018-07-13T21:26:52.805Z,6.90
2018-07-13T21:29:21.876Z,7.15
2018-07-13T21:31:51.781Z,6.97
2018-07-13T21:34:20.916Z,6.63
2018-07-13T21:36:50.144Z,7.50
2018-07-13T21:39:19.221Z,7.20
2018-07-13T21:41:48.348Z,7.07
2018-07-13T21:44:18.266Z,6.90
2018-07-13T21:46:47.428Z,6.62
2018-07-13T21:49:16.539Z,7.17
2018-07-13T21:51:45.724Z,7.40
2018-07-13T21:54:14.897Z,7.87
2018-07-13T21:56:44.124Z,6.20
2018-07-13T21:59:13.301Z,6.83
2018-07-13T22:01:42.993Z,7.57
2018-07-13T22:04:12.164Z,7.90
2018-07-13T22:06:41.269Z,7.17
2018-07-13T22:09:10.452Z,7.53
2018-07-13T22:11:39.533Z,6.50
2018-07-13T22:14:08.925Z,7.17
2018-07-13T22:16:38.125Z,6.75
2018-07-13T22:19:07.412Z,7.87
2018-07-13T22:21:36.579Z,8.27
2018-07-13T22:24:06.976Z,7.65
2018-07-13T22:26:36.117Z,7.07
2018-07-13T22:29:06.301Z,7.50
2018-07-13T22:31:35.377Z,6.33
2018-07-13T22:34:04.505Z,6.97
2018-07-13T22:36:33.583Z,7.20
2018-07-13T22:39:02.696Z,6.65
2018-07-13T22:41:31.860Z,6.47
2018-07-13T22:44:00.937Z,7.03
2018-07-13T22:46:30.033Z,7.63
2018-07-13T22:48:59.202Z,7.20
2018-07-13T22:51:28.292Z,8.17
2018-07-13T22:53:57.423Z,7.53
2018-07-13T22:56:26.774Z,6.80
2018-07-13T22:58:55.884Z,7.77
2018-07-13T23:01:25.012Z,7.27
2018-07-13T23:03:54.139Z,7.63
2018-07-13T23:06:23.224Z,7.33
2018-07-13T23:08:52.356Z,7.10
2018-07-13T23:11:21.469Z,6.73
2018-07-13T23:13:50.604Z,6.83
2018-07-13T23:16:19.709Z,6.83
2018-07-13T23:18:48.800Z,6.47
2018-07-13T23:21:17.936Z,7.93
2018-07-13T23:23:47.262Z,7.27
2018-07-13T23:26:16.361Z,7.10
2018-07-13T23:28:45.453Z,7.07
2018-07-13T23:31:14.580Z,7.30
2018-07-13T23:33:43.677Z,7.37
2018-07-13T23:36:12.796Z,7.37
2018-07-13T23:38:41.901Z,7.80
2018-07-13T23:41:11.017Z,6.70
2018-07-13T23:43:40.117Z,6.83
2018-07-13T23:46:09.248Z,6.80
2018-07-13T23:48:38.330Z,6.90
2018-07-13T23:51:07.437Z,7.40
2018-07-13T23:53:36.528Z,7.40
2018-07-13T23:56:05.698Z,8.00
2018-07-13T23:58:34.809Z,6.43
